Aviation Digital Data Service (ADDS)

Output produced by METARs form (2253 UTC 26 February 2020)
found at http://www.aviationweather.gov/metar/data/
 
METAR text: RJTF 260700Z 01005KT 330V040 9999 FEW015 SCT030 BKN070 09/05 Q1013
Conditions at: RJTF (CHOFU AIRPORT , JP) observed 0700 UTC 26 February 2020
Temperature: 9.0°C (48°F)
Dewpoint: 5.0°C (41°F) [RH = 76%]
Pressure (altimeter): 29.91 inches Hg (1013.0 mb)
Winds: from the N (10 degrees) at 6 MPH (5 knots; 2.6 m/s)
Visibility: 6 or more miles (10+ km)
Ceiling: 7000 feet AGL
Clouds: few clouds at 1500 feet AGL
scattered clouds at 3000 feet AGL
broken clouds at 7000 feet AGL
Weather: no significant weather observed at this time

METAR text: RJTF 260600Z 36007KT 9999 SCT015 BKN030 BKN070 09/06 Q1012
Conditions at: RJTF (CHOFU AIRPORT , JP) observed 0600 UTC 26 February 2020
Temperature: 9.0°C (48°F)
Dewpoint: 6.0°C (43°F) [RH = 81%]
Pressure (altimeter): 29.88 inches Hg (1012.0 mb)
Winds: from the N (360 degrees) at 8 MPH (7 knots; 3.6 m/s)
Visibility: 6 or more miles (10+ km)
Ceiling: 3000 feet AGL
Clouds: scattered clouds at 1500 feet AGL
broken clouds at 3000 feet AGL
broken clouds at 7000 feet AGL
Weather: no significant weather observed at this time

METAR text: RJTF 260500Z 35007KT 9999 SCT010 BKN015 BKN030 08/06 Q1013
Conditions at: RJTF (CHOFU AIRPORT , JP) observed 0500 UTC 26 February 2020
Temperature: 8.0°C (46°F)
Dewpoint: 6.0°C (43°F) [RH = 87%]
Pressure (altimeter): 29.91 inches Hg (1013.0 mb)
Winds: from the N (350 degrees) at 8 MPH (7 knots; 3.6 m/s)
Visibility: 6 or more miles (10+ km)
Ceiling: 1500 feet AGL
Clouds: scattered clouds at 1000 feet AGL
broken clouds at 1500 feet AGL
broken clouds at 3000 feet AGL
Weather: no significant weather observed at this time

METAR text: RJTF 260400Z 34006KT 320V020 9999 SCT010 BKN015 08/06 Q1013
Conditions at: RJTF (CHOFU AIRPORT , JP) observed 0400 UTC 26 February 2020
Temperature: 8.0°C (46°F)
Dewpoint: 6.0°C (43°F) [RH = 87%]
Pressure (altimeter): 29.91 inches Hg (1013.0 mb)
Winds: from the NNW (340 degrees) at 7 MPH (6 knots; 3.1 m/s)
Visibility: 6 or more miles (10+ km)
Ceiling: 1500 feet AGL
Clouds: scattered clouds at 1000 feet AGL
broken clouds at 1500 feet AGL
Weather: no significant weather observed at this time

METAR text: RJTF 260300Z 36008KT 9999 FEW008 SCT010 BKN015 07/05 Q1014
Conditions at: RJTF (CHOFU AIRPORT , JP) observed 0300 UTC 26 February 2020
Temperature: 7.0°C (45°F)
Dewpoint: 5.0°C (41°F) [RH = 87%]
Pressure (altimeter): 29.94 inches Hg (1014.0 mb)
Winds: from the N (360 degrees) at 9 MPH (8 knots; 4.1 m/s)
Visibility: 6 or more miles (10+ km)
Ceiling: 1500 feet AGL
Clouds: few clouds at 800 feet AGL
scattered clouds at 1000 feet AGL
broken clouds at 1500 feet AGL
Weather: no significant weather observed at this time

METAR text: RJTF 260219Z 36007KT 9999 FEW008 SCT010 BKN015 08/06 Q1015 RMK 1ST008 3ST010 7SC015 A2997
Conditions at: RJTF (CHOFU AIRPORT , JP) observed 0219 UTC 26 February 2020
Temperature: 8.0°C (46°F)
Dewpoint: 6.0°C (43°F) [RH = 87%]
Pressure (altimeter): 29.97 inches Hg (1015.0 mb)
Winds: from the N (360 degrees) at 8 MPH (7 knots; 3.6 m/s)
Visibility: 6 or more miles (10+ km)
Ceiling: 1500 feet AGL
Clouds: few clouds at 800 feet AGL
scattered clouds at 1000 feet AGL
broken clouds at 1500 feet AGL
Weather: no significant weather observed at this time

METAR text: RJTF 260200Z 35008KT 8000 FEW006 BKN008 BKN015 07/06 Q1015
Conditions at: RJTF (CHOFU AIRPORT , JP) observed 0200 UTC 26 February 2020
Temperature: 7.0°C (45°F)
Dewpoint: 6.0°C (43°F) [RH = 93%]
Pressure (altimeter): 29.97 inches Hg (1015.0 mb)
Winds: from the N (350 degrees) at 9 MPH (8 knots; 4.1 m/s)
Visibility: 5 miles ( 8 km)
Ceiling: 800 feet AGL
Clouds: few clouds at 600 feet AGL
broken clouds at 800 feet AGL
broken clouds at 1500 feet AGL
Weather: no significant weather observed at this time

METAR text: RJTF 260100Z 35009KT 5000 -RA BR FEW006 BKN008 BKN015 07/06 Q1015
Conditions at: RJTF (CHOFU AIRPORT , JP) observed 0100 UTC 26 February 2020
Temperature: 7.0°C (45°F)
Dewpoint: 6.0°C (43°F) [RH = 93%]
Pressure (altimeter): 29.97 inches Hg (1015.0 mb)
Winds: from the N (350 degrees) at 10 MPH (9 knots; 4.6 m/s)
Visibility: 3 miles ( 5 km)
Ceiling: 800 feet AGL
Clouds: few clouds at 600 feet AGL
broken clouds at 800 feet AGL
broken clouds at 1500 feet AGL
Weather: -RA BR  (light rain, mist)

METAR text: RJTF 260034Z 35007KT 5000 -RA BR FEW003 SCT006 BKN008 07/06 Q1015 RMK 1ST003 4ST006 7ST008 A2998
Conditions at: RJTF (CHOFU AIRPORT , JP) observed 0034 UTC 26 February 2020
Temperature: 7.0°C (45°F)
Dewpoint: 6.0°C (43°F) [RH = 93%]
Pressure (altimeter): 29.97 inches Hg (1015.0 mb)
Winds: from the N (350 degrees) at 8 MPH (7 knots; 3.6 m/s)
Visibility: 3 miles ( 5 km)
Ceiling: 800 feet AGL
Clouds: few clouds at 300 feet AGL
scattered clouds at 600 feet AGL
broken clouds at 800 feet AGL
Weather: -RA BR  (light rain, mist)

METAR text: RJTF 260000Z 35009KT 4000 -RA BR FEW003 BKN005 BKN008 07/06 Q1015
Conditions at: RJTF (CHOFU AIRPORT , JP) observed 0000 UTC 26 February 2020
Temperature: 7.0°C (45°F)
Dewpoint: 6.0°C (43°F) [RH = 93%]
Pressure (altimeter): 29.97 inches Hg (1015.0 mb)
Winds: from the N (350 degrees) at 10 MPH (9 knots; 4.6 m/s)
Visibility: 2.49 miles (4.01 km)
Ceiling: 500 feet AGL
Clouds: few clouds at 300 feet AGL
broken clouds at 500 feet AGL
broken clouds at 800 feet AGL
Weather: -RA BR  (light rain, mist)

METAR text: RJTF 252330Z 35009KT 2000 -DZ BR FEW002 BKN005 BKN008 07/06 Q1015
Conditions at: RJTF (CHOFU AIRPORT , JP) observed 2330 UTC 25 February 2020
Temperature: 7.0°C (45°F)
Dewpoint: 6.0°C (43°F) [RH = 93%]
Pressure (altimeter): 29.97 inches Hg (1015.0 mb)
Winds: from the N (350 degrees) at 10 MPH (9 knots; 4.6 m/s)
Visibility: 1.24 miles (2.00 km)
Ceiling: 500 feet AGL
Clouds: few clouds at 200 feet AGL
broken clouds at 500 feet AGL
broken clouds at 800 feet AGL
Weather: -DZ BR  (light drizzle, mist)